Time;durP1;ratioP1;P1;durP2;ratioP2;P2;SDS_P1;SDS_P2;PMS_P1;PMS_P2;Temp;Humidity;BMP_temperature;BMP_pressure;BME280_temperature;BME280_humidity;BME280_pressure;Samples;Min_cycle;Max_cycle;Signal;HPM_P1;HPM_P2
2021/12/26 00:02:10;;;;;;;7.93;6.97;;;;;;;;;;5008790;28;20453;-69
2021/12/26 00:04:37;;;;;;;7.95;6.70;;;;;;;;;;4994161;28;20055;-69
2021/12/26 00:07:04;;;;;;;9.02;6.78;;;;;;;;;;4994131;28;20105;-69
2021/12/26 00:09:30;;;;;;;8.85;6.95;;;;;;;;;;4993770;28;20054;-68
2021/12/26 00:11:58;;;;;;;8.13;7.00;;;;;;;;;;4993753;28;20494;-69
2021/12/26 00:14:24;;;;;;;9.27;7.57;;;;;;;;;;4994098;28;20379;-68
2021/12/26 00:16:51;;;;;;;9.00;7.00;;;;;;;;;;4993708;28;20050;-68
2021/12/26 00:19:17;;;;;;;11.88;8.80;;;;;;;;;;5008564;28;20557;-68
2021/12/26 00:21:44;;;;;;;10.75;7.60;;;;;;;;;;4993497;28;20453;-68
2021/12/26 00:24:11;;;;;;;11.00;7.50;;;;;;;;;;4993510;28;20171;-68
2021/12/26 00:26:37;;;;;;;9.73;7.50;;;;;;;;;;4993713;28;20449;-68
2021/12/26 00:29:04;;;;;;;8.40;7.50;;;;;;;;;;4993433;28;20096;-68
2021/12/26 00:31:31;;;;;;;11.30;7.65;;;;;;;;;;5008573;28;20186;-68
2021/12/26 00:33:58;;;;;;;8.25;7.10;;;;;;;;;;4992920;28;20050;-68
2021/12/26 00:36:24;;;;;;;10.57;7.82;;;;;;;;;;4993341;28;20101;-68
2021/12/26 00:38:51;;;;;;;9.30;7.00;;;;;;;;;;4993148;28;20050;-69
2021/12/26 00:41:17;;;;;;;10.35;7.75;;;;;;;;;;4993139;28;20057;-68
2021/12/26 00:43:45;;;;;;;9.50;6.97;;;;;;;;;;4991872;28;20062;-68
2021/12/26 00:46:14;;;;;;;9.80;7.00;;;;;;;;;;4993357;28;21820;-68
2021/12/26 00:48:41;;;;;;;10.38;7.47;;;;;;;;;;4993102;28;20054;-68
2021/12/26 00:51:07;;;;;;;12.02;7.28;;;;;;;;;;5008157;28;20128;-69
2021/12/26 00:53:34;;;;;;;10.52;8.35;;;;;;;;;;4993248;28;20100;-68
2021/12/26 00:56:00;;;;;;;11.90;8.85;;;;;;;;;;4993242;28;20046;-68
2021/12/26 00:58:27;;;;;;;9.77;7.30;;;;;;;;;;4993064;28;20050;-68
2021/12/26 01:00:53;;;;;;;10.43;7.55;;;;;;;;;;4992795;28;20057;-68
2021/12/26 01:03:20;;;;;;;13.43;9.75;;;;;;;;;;4993099;28;20050;-69
2021/12/26 01:05:49;;;;;;;9.23;7.25;;;;;;;;;;4992754;28;20395;-68
2021/12/26 01:08:18;;;;;;;9.10;7.13;;;;;;;;;;4993020;28;20468;-68
2021/12/26 01:10:48;;;;;;;8.93;6.45;;;;;;;;;;4992412;28;20564;-69
2021/12/26 01:13:22;;;;;;;9.88;7.47;;;;;;;;;;4992059;28;20046;-69
2021/12/26 01:15:50;;;;;;;8.88;6.72;;;;;;;;;;4992191;28;20437;-69
2021/12/26 01:18:17;;;;;;;11.13;7.97;;;;;;;;;;4991795;28;20462;-70
2021/12/26 01:23:12;;;;;;;9.47;7.47;;;;;;;;;;4992209;28;20108;-70
2021/12/26 01:25:39;;;;;;;11.95;7.85;;;;;;;;;;4991757;28;20453;-71
2021/12/26 01:28:06;;;;;;;10.95;8.18;;;;;;;;;;4991871;28;20121;-70
2021/12/26 01:30:33;;;;;;;14.38;7.35;;;;;;;;;;4991618;28;20054;-70
2021/12/26 01:32:59;;;;;;;11.00;7.28;;;;;;;;;;4991647;28;20046;-70
2021/12/26 01:35:26;;;;;;;15.38;8.13;;;;;;;;;;4991563;28;20470;-70
2021/12/26 01:37:52;;;;;;;11.52;7.18;;;;;;;;;;4991712;28;20054;-70
2021/12/26 01:40:19;;;;;;;12.65;7.57;;;;;;;;;;5006782;28;20108;-70
2021/12/26 01:42:45;;;;;;;11.57;7.85;;;;;;;;;;4991509;28;20054;-70
2021/12/26 01:45:12;;;;;;;10.48;7.22;;;;;;;;;;4990348;28;20047;-70
2021/12/26 01:47:39;;;;;;;12.52;6.85;;;;;;;;;;4991667;28;20125;-70
2021/12/26 01:50:06;;;;;;;11.73;7.65;;;;;;;;;;4991356;28;20109;-70
2021/12/26 01:52:34;;;;;;;11.57;7.82;;;;;;;;;;4991341;28;20502;-70
2021/12/26 01:55:20;;;;;;;11.50;8.00;;;;;;;;;;4991708;28;20046;-70
2021/12/26 01:57:47;;;;;;;12.98;8.35;;;;;;;;;;4991294;28;20047;-70
2021/12/26 02:00:14;;;;;;;12.88;7.90;;;;;;;;;;4991374;28;20513;-70
2021/12/26 02:02:40;;;;;;;13.15;8.77;;;;;;;;;;4991227;28;20561;-70
2021/12/26 02:05:07;;;;;;;11.60;8.20;;;;;;;;;;4991441;28;20410;-70
2021/12/26 02:07:34;;;;;;;14.95;8.68;;;;;;;;;;5006378;28;20097;-70
2021/12/26 02:10:00;;;;;;;14.57;8.38;;;;;;;;;;4991162;28;20047;-70
2021/12/26 02:12:27;;;;;;;14.43;9.03;;;;;;;;;;4951776;28;1161588;-70
2021/12/26 02:14:53;;;;;;;14.70;8.88;;;;;;;;;;4991905;28;20446;-70
2021/12/26 02:17:20;;;;;;;14.27;8.63;;;;;;;;;;4992216;28;20453;-70
2021/12/26 02:19:49;;;;;;;15.70;9.00;;;;;;;;;;4992127;28;20046;-69
2021/12/26 02:22:23;;;;;;;11.85;7.82;;;;;;;;;;4991869;28;20495;-70
2021/12/26 02:27:38;;;;;;;13.40;8.40;;;;;;;;;;4991980;28;20050;-69
2021/12/26 02:30:07;;;;;;;12.68;8.02;;;;;;;;;;4992167;28;20104;-69
2021/12/26 02:32:34;;;;;;;12.25;8.80;;;;;;;;;;4991863;28;20054;-69
2021/12/26 02:35:01;;;;;;;12.15;7.85;;;;;;;;;;4991936;28;20050;-69
2021/12/26 02:37:27;;;;;;;12.88;8.52;;;;;;;;;;4991790;28;20073;-69
2021/12/26 02:39:54;;;;;;;17.00;8.25;;;;;;;;;;4992023;28;20454;-69
2021/12/26 02:42:22;;;;;;;11.70;8.20;;;;;;;;;;4992043;28;20050;-69
2021/12/26 02:44:49;;;;;;;12.63;8.48;;;;;;;;;;4991711;28;20097;-69
2021/12/26 02:47:36;;;;;;;11.77;8.33;;;;;;;;;;4991764;28;20113;-69
2021/12/26 02:50:06;;;;;;;14.43;8.68;;;;;;;;;;4991628;28;20047;-69
2021/12/26 02:52:32;;;;;;;14.82;9.18;;;;;;;;;;4991814;28;20054;-69
2021/12/26 02:54:59;;;;;;;14.43;9.43;;;;;;;;;;5006731;28;20050;-69
2021/12/26 02:57:25;;;;;;;14.50;8.73;;;;;;;;;;4993611;28;20112;-69
2021/12/26 02:59:52;;;;;;;16.60;8.70;;;;;;;;;;4995241;28;20128;-69
2021/12/26 03:02:18;;;;;;;17.88;9.35;;;;;;;;;;4995347;28;20046;-69
2021/12/26 03:04:45;;;;;;;15.48;9.82;;;;;;;;;;4993717;28;20441;-69
2021/12/26 03:07:12;;;;;;;13.65;9.55;;;;;;;;;;5010000;28;20085;-69
2021/12/26 03:09:45;;;;;;;14.38;9.07;;;;;;;;;;4994987;28;20494;-69
2021/12/26 03:12:12;;;;;;;16.42;10.50;;;;;;;;;;4994935;28;20403;-69
2021/12/26 03:14:39;;;;;;;18.92;10.52;;;;;;;;;;4995182;28;20050;-69
2021/12/26 03:17:06;;;;;;;18.02;10.60;;;;;;;;;;4995056;28;20050;-69
2021/12/26 03:19:36;;;;;;;20.02;10.25;;;;;;;;;;4995036;28;20112;-69
2021/12/26 03:22:03;;;;;;;17.70;9.80;;;;;;;;;;4993549;28;20453;-69
2021/12/26 03:24:30;;;;;;;16.60;10.70;;;;;;;;;;4994675;28;20494;-69
2021/12/26 03:26:58;;;;;;;17.45;9.68;;;;;;;;;;4994870;28;20112;-69
2021/12/26 03:29:24;;;;;;;18.25;9.45;;;;;;;;;;4994551;28;20088;-69
2021/12/26 03:31:51;;;;;;;18.58;9.85;;;;;;;;;;4994634;28;20058;-69
2021/12/26 03:34:17;;;;;;;15.43;9.43;;;;;;;;;;5009472;28;20486;-69
2021/12/26 03:36:44;;;;;;;17.05;9.90;;;;;;;;;;4994494;28;20101;-69
2021/12/26 03:39:11;;;;;;;15.30;9.27;;;;;;;;;;5009429;28;20047;-69
2021/12/26 03:41:37;;;;;;;15.77;9.82;;;;;;;;;;4994371;28;20108;-69
2021/12/26 03:44:04;;;;;;;18.83;9.57;;;;;;;;;;4994274;28;20050;-69
2021/12/26 03:46:30;;;;;;;15.88;9.63;;;;;;;;;;4994485;28;20113;-69
2021/12/26 03:49:01;;;;;;;16.83;9.32;;;;;;;;;;4994127;28;20113;-69
2021/12/26 03:51:27;;;;;;;16.65;9.23;;;;;;;;;;4994427;28;20109;-69
2021/12/26 03:53:54;;;;;;;16.70;9.45;;;;;;;;;;4994188;28;20050;-68
2021/12/26 03:56:20;;;;;;;16.08;8.98;;;;;;;;;;4994731;28;20069;-68
2021/12/26 03:58:47;;;;;;;20.83;10.10;;;;;;;;;;4993961;28;20466;-68
2021/12/26 04:01:13;;;;;;;13.95;9.77;;;;;;;;;;4994303;28;20054;-68
2021/12/26 04:03:40;;;;;;;14.15;8.75;;;;;;;;;;4993986;28;20054;-69
2021/12/26 04:06:08;;;;;;;15.65;9.15;;;;;;;;;;4993892;28;20561;-69
2021/12/26 04:08:34;;;;;;;16.10;9.05;;;;;;;;;;4993250;28;20054;-69
2021/12/26 04:11:01;;;;;;;18.15;9.57;;;;;;;;;;4993714;28;20462;-69
2021/12/26 04:13:27;;;;;;;17.40;9.65;;;;;;;;;;4993997;28;20105;-68
2021/12/26 04:15:54;;;;;;;15.45;9.38;;;;;;;;;;4993717;28;20104;-68
2021/12/26 04:18:20;;;;;;;15.95;9.13;;;;;;;;;;4993603;28;20521;-69
2021/12/26 04:20:47;;;;;;;13.63;8.75;;;;;;;;;;4993611;28;20062;-68
2021/12/26 04:23:14;;;;;;;21.63;10.00;;;;;;;;;;4993820;28;20446;-69
2021/12/26 04:25:41;;;;;;;16.67;9.48;;;;;;;;;;4993506;28;20054;-69
2021/12/26 04:28:08;;;;;;;16.30;9.35;;;;;;;;;;4993412;28;20062;-68
2021/12/26 04:30:34;;;;;;;16.60;9.50;;;;;;;;;;4993478;28;20450;-68
2021/12/26 04:33:01;;;;;;;17.88;9.93;;;;;;;;;;4993690;28;20054;-68
2021/12/26 04:35:28;;;;;;;18.58;9.88;;;;;;;;;;4993382;28;20054;-68
2021/12/26 04:37:54;;;;;;;14.95;9.25;;;;;;;;;;4993315;28;20105;-68
2021/12/26 04:40:21;;;;;;;15.98;9.18;;;;;;;;;;4993212;28;20096;-68
2021/12/26 04:42:48;;;;;;;16.02;9.52;;;;;;;;;;4993434;28;20121;-69
2021/12/26 04:45:15;;;;;;;16.60;9.75;;;;;;;;;;4993406;28;20046;-69
2021/12/26 04:47:43;;;;;;;15.83;8.90;;;;;;;;;;4993207;28;20057;-69
2021/12/26 04:50:12;;;;;;;18.60;10.00;;;;;;;;;;4993161;28;20054;-68
2021/12/26 04:52:43;;;;;;;15.85;9.57;;;;;;;;;;4993136;28;20188;-68
2021/12/26 04:55:10;;;;;;;20.13;10.80;;;;;;;;;;4993300;28;20096;-68
2021/12/26 04:57:37;;;;;;;18.80;9.80;;;;;;;;;;4993300;28;20050;-68
2021/12/26 05:00:05;;;;;;;15.38;9.23;;;;;;;;;;4993269;28;20302;-68
2021/12/26 05:02:35;;;;;;;17.02;9.20;;;;;;;;;;5007843;28;20082;-68
2021/12/26 05:05:02;;;;;;;21.88;10.45;;;;;;;;;;4992854;28;20050;-68
2021/12/26 05:07:29;;;;;;;18.27;9.50;;;;;;;;;;4992757;28;20054;-68
2021/12/26 05:09:55;;;;;;;18.70;9.00;;;;;;;;;;4993004;28;20050;-68
2021/12/26 05:12:23;;;;;;;15.05;8.75;;;;;;;;;;4992469;28;20058;-68
2021/12/26 05:14:50;;;;;;;26.33;9.25;;;;;;;;;;4992828;28;20046;-68
2021/12/26 05:17:21;;;;;;;19.63;8.90;;;;;;;;;;4992584;28;20050;-68
2021/12/26 05:19:48;;;;;;;16.60;9.57;;;;;;;;;;4992348;28;20100;-68
2021/12/26 05:22:14;;;;;;;16.05;10.10;;;;;;;;;;4992564;28;20058;-68
2021/12/26 05:24:41;;;;;;;17.75;10.07;;;;;;;;;;4992766;28;20454;-68
2021/12/26 05:27:07;;;;;;;33.70;11.30;;;;;;;;;;4992653;28;20108;-68
2021/12/26 05:29:34;;;;;;;33.28;9.60;;;;;;;;;;4992527;28;20125;-68
2021/12/26 05:32:00;;;;;;;20.17;9.27;;;;;;;;;;4992259;28;20042;-68
2021/12/26 05:34:27;;;;;;;51.13;10.85;;;;;;;;;;4992305;28;20113;-68
2021/12/26 05:36:53;;;;;;;56.65;11.05;;;;;;;;;;4992562;28;20046;-68
2021/12/26 05:39:20;;;;;;;115.00;12.73;;;;;;;;;;4992726;28;20072;-68
2021/12/26 05:41:46;;;;;;;84.10;11.10;;;;;;;;;;4992422;28;20129;-68
2021/12/26 05:44:13;;;;;;;68.03;11.05;;;;;;;;;;5007319;28;20050;-68
2021/12/26 05:46:40;;;;;;;108.25;13.02;;;;;;;;;;4992260;28;20138;-68
2021/12/26 05:49:07;;;;;;;62.40;11.00;;;;;;;;;;4992520;28;20054;-69
2021/12/26 05:51:33;;;;;;;80.72;11.30;;;;;;;;;;4992519;28;20446;-68
2021/12/26 05:54:00;;;;;;;89.70;12.13;;;;;;;;;;4992394;28;20438;-68
2021/12/26 05:56:26;;;;;;;19.75;9.90;;;;;;;;;;4992248;28;20483;-68
2021/12/26 05:58:53;;;;;;;20.75;9.23;;;;;;;;;;4992412;28;20445;-68
2021/12/26 06:01:19;;;;;;;16.55;9.07;;;;;;;;;;4992416;28;20050;-68
2021/12/26 06:03:46;;;;;;;30.33;9.43;;;;;;;;;;4991965;28;20054;-68
2021/12/26 06:06:12;;;;;;;50.35;10.38;;;;;;;;;;4992364;28;20042;-68
2021/12/26 06:08:39;;;;;;;104.97;13.35;;;;;;;;;;4992283;28;20058;-68
2021/12/26 06:11:05;;;;;;;131.23;13.88;;;;;;;;;;4992016;28;20465;-68
2021/12/26 06:13:33;;;;;;;163.88;13.38;;;;;;;;;;4992445;28;20054;-68
2021/12/26 06:16:00;;;;;;;;;;;;;;;;;;4992500;28;20450;-68
2021/12/26 06:18:27;;;;;;;180.80;15.07;;;;;;;;;;4992230;28;19922;-68
2021/12/26 06:20:53;;;;;;;123.88;11.27;;;;;;;;;;4991883;28;20046;-68
2021/12/26 06:23:20;;;;;;;123.22;11.55;;;;;;;;;;4992276;28;20383;-68
2021/12/26 06:25:46;;;;;;;51.67;8.57;;;;;;;;;;4992413;28;20368;-67
2021/12/26 06:28:13;;;;;;;82.47;10.60;;;;;;;;;;4991962;28;20046;-68
2021/12/26 06:30:39;;;;;;;55.78;9.95;;;;;;;;;;4991988;28;20077;-68
2021/12/26 06:33:06;;;;;;;44.10;8.88;;;;;;;;;;4994906;28;20104;-68
2021/12/26 06:35:33;;;;;;;41.80;8.98;;;;;;;;;;5010768;28;20074;-68
2021/12/26 06:37:59;;;;;;;48.03;8.70;;;;;;;;;;4995517;28;20510;-68
2021/12/26 06:40:26;;;;;;;52.47;9.75;;;;;;;;;;4995439;28;20557;-68
2021/12/26 06:42:52;;;;;;;46.72;8.77;;;;;;;;;;4995419;28;20479;-68
2021/12/26 06:45:19;;;;;;;62.22;9.82;;;;;;;;;;4995367;28;20055;-68
2021/12/26 06:47:50;;;;;;;38.35;9.07;;;;;;;;;;4995629;28;20050;-68
2021/12/26 06:50:18;;;;;;;43.60;9.05;;;;;;;;;;4995663;28;20050;-68
2021/12/26 06:52:45;;;;;;;17.92;8.02;;;;;;;;;;4995219;28;20105;-68
2021/12/26 06:55:11;;;;;;;22.15;8.05;;;;;;;;;;4995505;28;20101;-68
2021/12/26 06:57:38;;;;;;;35.25;8.50;;;;;;;;;;4995300;28;20177;-68
2021/12/26 07:00:06;;;;;;;29.10;8.02;;;;;;;;;;4995384;28;20104;-68
2021/12/26 07:02:32;;;;;;;;;;;;;;;;;;4994451;28;20101;-68
2021/12/26 07:04:58;;;;;;;20.95;8.27;;;;;;;;;;4995482;28;19933;-68
2021/12/26 07:07:25;;;;;;;18.15;7.80;;;;;;;;;;4995039;28;20148;-68
2021/12/26 07:09:52;;;;;;;13.43;7.68;;;;;;;;;;4995077;28;20050;-68
2021/12/26 07:12:18;;;;;;;14.23;7.57;;;;;;;;;;4994494;28;20101;-68
2021/12/26 07:14:45;;;;;;;23.45;8.43;;;;;;;;;;4994857;28;20462;-68
2021/12/26 07:17:11;;;;;;;15.00;7.50;;;;;;;;;;4995074;28;20050;-68
2021/12/26 07:19:38;;;;;;;27.30;8.32;;;;;;;;;;4994731;28;20050;-68
2021/12/26 07:22:05;;;;;;;31.63;7.90;;;;;;;;;;4995053;28;20458;-68
2021/12/26 07:24:31;;;;;;;25.50;8.00;;;;;;;;;;4994609;28;20112;-68
2021/12/26 07:26:58;;;;;;;23.35;7.60;;;;;;;;;;4994626;28;20105;-68
2021/12/26 07:29:24;;;;;;;15.32;6.57;;;;;;;;;;4994781;28;20116;-68
2021/12/26 07:31:51;;;;;;;14.10;6.25;;;;;;;;;;4994475;28;20042;-68
2021/12/26 07:34:17;;;;;;;16.13;6.88;;;;;;;;;;4994499;28;20573;-68
2021/12/26 07:36:44;;;;;;;11.95;6.63;;;;;;;;;;4994541;28;20100;-68
2021/12/26 07:39:10;;;;;;;10.48;6.90;;;;;;;;;;4994748;28;20439;-68
2021/12/26 07:41:37;;;;;;;10.13;6.47;;;;;;;;;;4994288;28;20414;-68
2021/12/26 07:44:03;;;;;;;19.63;7.15;;;;;;;;;;4994569;28;20050;-68
2021/12/26 07:46:30;;;;;;;18.77;9.88;;;;;;;;;;4994407;28;20116;-68
2021/12/26 07:48:57;;;;;;;14.23;7.57;;;;;;;;;;4994498;28;20125;-68
2021/12/26 07:51:23;;;;;;;18.08;8.07;;;;;;;;;;4994448;28;20384;-68
2021/12/26 07:53:51;;;;;;;21.60;8.25;;;;;;;;;;4994181;28;20120;-68
2021/12/26 07:56:18;;;;;;;54.15;10.90;;;;;;;;;;4994104;28;20050;-68
2021/12/26 07:58:45;;;;;;;40.53;9.82;;;;;;;;;;4994252;28;20104;-68
2021/12/26 08:01:11;;;;;;;37.25;10.00;;;;;;;;;;4993128;28;20093;-68
2021/12/26 08:03:39;;;;;;;43.63;13.55;;;;;;;;;;4994176;28;20129;-68
2021/12/26 08:06:07;;;;;;;45.20;11.57;;;;;;;;;;4993907;28;20046;-68
2021/12/26 08:08:35;;;;;;;71.40;12.35;;;;;;;;;;4993956;28;20046;-68
2021/12/26 08:11:02;;;;;;;46.22;12.52;;;;;;;;;;4993962;28;20046;-68
2021/12/26 08:13:32;;;;;;;23.80;11.23;;;;;;;;;;4994164;28;20128;-68
2021/12/26 08:15:59;;;;;;;15.90;9.25;;;;;;;;;;4993769;28;20530;-68
2021/12/26 08:18:25;;;;;;;77.93;9.98;;;;;;;;;;4993809;28;20057;-68
2021/12/26 08:20:52;;;;;;;46.67;8.10;;;;;;;;;;4993875;28;20054;-68
2021/12/26 08:23:18;;;;;;;66.40;8.85;;;;;;;;;;4993573;28;20046;-68
2021/12/26 08:25:45;;;;;;;80.45;8.65;;;;;;;;;;4993493;28;20105;-68
2021/12/26 08:28:14;;;;;;;53.25;8.95;;;;;;;;;;4993431;28;20046;-68
2021/12/26 08:30:41;;;;;;;57.88;8.55;;;;;;;;;;4993623;28;20125;-68
2021/12/26 08:33:08;;;;;;;48.65;8.50;;;;;;;;;;4992122;28;20050;-68
2021/12/26 08:35:35;;;;;;;42.28;7.85;;;;;;;;;;4993527;28;20375;-68
2021/12/26 08:38:01;;;;;;;39.53;7.60;;;;;;;;;;4992470;28;20093;-68
2021/12/26 08:40:28;;;;;;;49.38;7.97;;;;;;;;;;4992822;28;20054;-68
2021/12/26 08:42:54;;;;;;;15.95;5.60;;;;;;;;;;4992661;28;20101;-68
2021/12/26 08:45:21;;;;;;;9.07;5.85;;;;;;;;;;4993060;28;20042;-68
2021/12/26 08:47:48;;;;;;;8.95;6.07;;;;;;;;;;4987665;28;20418;-68
2021/12/26 08:50:15;;;;;;;11.25;6.78;;;;;;;;;;4973677;28;20054;-68
2021/12/26 08:52:42;;;;;;;11.90;7.05;;;;;;;;;;4973486;28;20042;-69
2021/12/26 08:55:09;;;;;;;11.05;6.93;;;;;;;;;;4986025;28;20050;-68
2021/12/26 08:57:35;;;;;;;8.60;5.80;;;;;;;;;;4992765;28;20039;-68
2021/12/26 09:00:04;;;;;;;9.18;5.38;;;;;;;;;;4992685;28;20335;-69
2021/12/26 09:02:35;;;;;;;10.20;5.55;;;;;;;;;;4992655;28;20061;-68
2021/12/26 09:05:02;;;;;;;10.55;5.40;;;;;;;;;;4992553;28;20046;-68
2021/12/26 09:07:29;;;;;;;7.90;6.27;;;;;;;;;;4992998;28;20058;-68
2021/12/26 09:09:56;;;;;;;9.95;6.25;;;;;;;;;;4973260;28;20050;-68
2021/12/26 09:12:24;;;;;;;8.45;5.75;;;;;;;;;;4977918;28;20117;-68
2021/12/26 09:14:51;;;;;;;6.68;5.45;;;;;;;;;;4992565;28;20050;-68
2021/12/26 09:17:17;;;;;;;11.55;7.28;;;;;;;;;;4980379;28;20446;-68
2021/12/26 09:19:44;;;;;;;13.93;6.85;;;;;;;;;;4977149;28;20051;-67
2021/12/26 09:22:13;;;;;;;11.35;6.70;;;;;;;;;;4972997;28;20487;-68
2021/12/26 09:24:39;;;;;;;15.20;7.13;;;;;;;;;;4978150;28;20054;-69
2021/12/26 09:27:06;;;;;;;11.63;6.60;;;;;;;;;;4992740;28;20050;-67
2021/12/26 09:29:32;;;;;;;10.13;6.00;;;;;;;;;;4987882;28;20047;-67
2021/12/26 09:32:02;;;;;;;22.08;5.43;;;;;;;;;;4991353;28;20097;-67
2021/12/26 09:34:30;;;;;;;16.20;5.43;;;;;;;;;;4992664;28;20101;-67
2021/12/26 09:36:57;;;;;;;9.68;6.88;;;;;;;;;;4992567;28;20117;-68
2021/12/26 09:39:23;;;;;;;13.33;8.63;;;;;;;;;;4991261;28;20170;-67
2021/12/26 09:41:50;;;;;;;12.15;8.13;;;;;;;;;;4986176;28;20106;-68
2021/12/26 09:44:18;;;;;;;15.23;8.80;;;;;;;;;;4991944;28;20061;-68
2021/12/26 09:46:44;;;;;;;12.57;7.80;;;;;;;;;;4988722;28;20054;-67
2021/12/26 09:49:11;;;;;;;10.98;7.80;;;;;;;;;;4992418;28;20819;-67
2021/12/26 09:51:37;;;;;;;11.93;7.40;;;;;;;;;;5006927;28;20077;-67
2021/12/26 09:54:04;;;;;;;12.90;7.40;;;;;;;;;;4972186;28;20078;-67
2021/12/26 09:56:31;;;;;;;20.42;6.30;;;;;;;;;;4980587;28;20100;-68
2021/12/26 09:59:02;;;;;;;30.15;7.40;;;;;;;;;;4991595;28;20113;-67
2021/12/26 10:01:39;;;;;;;9.57;6.88;;;;;;;;;;4992455;28;20054;-67
2021/12/26 10:04:21;;;;;;;9.60;6.68;;;;;;;;;;4976559;28;20081;-67
2021/12/26 10:06:52;;;;;;;11.15;7.13;;;;;;;;;;4988646;28;20108;-67
2021/12/26 10:09:20;;;;;;;12.00;6.90;;;;;;;;;;4995891;28;20109;-67
2021/12/26 10:11:48;;;;;;;11.02;6.53;;;;;;;;;;4994408;28;20664;-66
2021/12/26 10:14:17;;;;;;;14.50;7.43;;;;;;;;;;4995896;28;20093;-67
2021/12/26 10:16:46;;;;;;;11.27;6.90;;;;;;;;;;4996191;28;20434;-67
2021/12/26 10:19:13;;;;;;;8.98;7.47;;;;;;;;;;4995756;28;20487;-68
2021/12/26 10:21:47;;;;;;;9.90;6.13;;;;;;;;;;4996139;28;20073;-67
2021/12/26 10:24:16;;;;;;;11.00;6.63;;;;;;;;;;4995746;28;20046;-67
2021/12/26 10:26:44;;;;;;;9.02;7.15;;;;;;;;;;4996049;28;20046;-68
2021/12/26 10:29:27;;;;;;;9.57;6.93;;;;;;;;;;4995984;28;20450;-67
2021/12/26 10:31:57;;;;;;;9.43;6.45;;;;;;;;;;4995840;28;20449;-67
2021/12/26 10:34:25;;;;;;;7.65;6.30;;;;;;;;;;4995963;28;20050;-67
2021/12/26 10:36:53;;;;;;;6.85;6.15;;;;;;;;;;4995557;28;20042;-67
2021/12/26 10:39:39;;;;;;;8.05;6.70;;;;;;;;;;4995777;28;20545;-67
2021/12/26 10:42:07;;;;;;;8.43;6.47;;;;;;;;;;4981271;28;20047;-67
2021/12/26 10:44:35;;;;;;;10.02;6.90;;;;;;;;;;4995793;28;20451;-68
2021/12/26 10:47:05;;;;;;;8.63;6.38;;;;;;;;;;4991094;28;20140;-67
2021/12/26 10:49:33;;;;;;;9.77;6.55;;;;;;;;;;4975889;28;20051;-68
2021/12/26 10:52:00;;;;;;;11.10;7.60;;;;;;;;;;4975412;28;20086;-67
2021/12/26 10:54:31;;;;;;;14.73;7.32;;;;;;;;;;4975771;28;20102;-68
2021/12/26 10:57:02;;;;;;;11.55;7.60;;;;;;;;;;4975686;28;20109;-67
2021/12/26 10:59:29;;;;;;;11.00;7.45;;;;;;;;;;4995225;28;20461;-67
2021/12/26 11:01:56;;;;;;;12.00;6.75;;;;;;;;;;4995284;28;20047;-67
2021/12/26 11:04:23;;;;;;;10.35;6.15;;;;;;;;;;4995317;28;20049;-67
2021/12/26 11:06:57;;;;;;;10.20;7.28;;;;;;;;;;4995184;28;20051;-68
2021/12/26 11:09:24;;;;;;;11.32;5.95;;;;;;;;;;4995244;28;20047;-68
2021/12/26 11:12:02;;;;;;;10.98;6.65;;;;;;;;;;4994774;28;20054;-68
2021/12/26 11:14:29;;;;;;;8.07;5.82;;;;;;;;;;4995156;28;20112;-68
2021/12/26 11:16:55;;;;;;;9.85;6.68;;;;;;;;;;4995017;28;20050;-68
2021/12/26 11:19:41;;;;;;;10.68;8.05;;;;;;;;;;4994464;28;20096;-68
2021/12/26 11:22:08;;;;;;;9.55;6.78;;;;;;;;;;4995093;28;20065;-68
2021/12/26 11:24:34;;;;;;;7.90;6.30;;;;;;;;;;4994609;28;20557;-69
2021/12/26 11:27:02;;;;;;;10.20;6.85;;;;;;;;;;4994967;28;20581;-69
2021/12/26 11:29:29;;;;;;;10.45;6.13;;;;;;;;;;4994785;28;20057;-77
2021/12/26 11:31:55;;;;;;;10.57;6.32;;;;;;;;;;4994790;28;20109;-76
2021/12/26 11:34:22;;;;;;;10.05;3.20;;;;;;;;;;4994833;28;20105;-74
2021/12/26 11:36:49;;;;;;;5.90;3.30;;;;;;;;;;4994478;28;20116;-74
2021/12/26 11:39:17;;;;;;;6.30;2.22;;;;;;;;;;4994409;28;20101;-76
2021/12/26 11:42:02;;;;;;;4.93;1.73;;;;;;;;;;4994268;28;20461;-78
2021/12/26 11:44:51;;;;;;;8.93;3.10;;;;;;;;;;4994671;28;20050;-76
2021/12/26 11:47:25;;;;;;;8.00;2.60;;;;;;;;;;4994445;28;20112;-76
2021/12/26 11:50:05;;;;;;;9.60;2.80;;;;;;;;;;4994523;28;20055;-77
2021/12/26 11:52:34;;;;;;;7.38;3.40;;;;;;;;;;4994134;28;20561;-77
2021/12/26 11:55:20;;;;;;;3.40;2.22;;;;;;;;;;5001185;28;20425;-78
2021/12/26 11:58:02;;;;;;;7.05;3.60;;;;;;;;;;4991153;28;20096;-77
2021/12/26 12:00:35;;;;;;;4.82;2.05;;;;;;;;;;4994196;28;20050;-77
2021/12/26 12:03:06;;;;;;;6.50;3.13;;;;;;;;;;4994199;28;20454;-76
2021/12/26 12:05:40;;;;;;;6.30;2.53;;;;;;;;;;4994425;28;20090;-77
2021/12/26 12:08:09;;;;;;;4.03;2.20;;;;;;;;;;4993901;28;20042;-75
2021/12/26 12:10:35;;;;;;;19.77;15.73;;;;;;;;;;4994061;28;20108;-73
2021/12/26 12:13:05;;;;;;;39.08;25.42;;;;;;;;;;4993511;28;20058;-74
2021/12/26 12:15:44;;;;;;;17.35;12.18;;;;;;;;;;4993975;28;20054;-74
2021/12/26 12:18:15;;;;;;;13.52;6.88;;;;;;;;;;4993624;28;20073;-74
2021/12/26 12:20:42;;;;;;;8.65;4.75;;;;;;;;;;4993591;28;20054;-75
2021/12/26 12:23:10;;;;;;;29.47;20.13;;;;;;;;;;4993874;28;20132;-75
2021/12/26 12:25:41;;;;;;;3.60;2.80;;;;;;;;;;4993796;28;20113;-75
2021/12/26 12:28:10;;;;;;;46.85;34.63;;;;;;;;;;4993828;28;20054;-75
2021/12/26 12:30:37;;;;;;;13.23;9.88;;;;;;;;;;4992662;28;20054;-75
2021/12/26 12:33:30;;;;;;;1.70;0.95;;;;;;;;;;4992103;28;20491;-75
2021/12/26 12:35:57;;;;;;;1.40;0.70;;;;;;;;;;4990344;28;20046;-75
2021/12/26 12:38:40;;;;;;;2.28;1.40;;;;;;;;;;4993274;28;20495;-74
2021/12/26 12:41:27;;;;;;;5.57;3.45;;;;;;;;;;4987023;28;20057;-74
2021/12/26 12:43:55;;;;;;;9.98;7.80;;;;;;;;;;4987062;28;20108;-75
2021/12/26 12:46:22;;;;;;;9.88;7.65;;;;;;;;;;4993098;28;20038;-75
2021/12/26 12:49:09;;;;;;;4.07;2.95;;;;;;;;;;4993082;28;20050;-75
2021/12/26 12:51:35;;;;;;;;;;;;;;;;;;4980045;28;20042;-74
2021/12/26 12:54:03;;;;;;;5.68;5.05;;;;;;;;;;4987036;28;19921;-74
2021/12/26 12:56:29;;;;;;;0.77;0.70;;;;;;;;;;4992920;28;20474;-73
2021/12/26 12:59:20;;;;;;;1.23;0.60;;;;;;;;;;4993244;28;20070;-73
2021/12/26 13:01:50;;;;;;;1.25;0.60;;;;;;;;;;4993087;28;20058;-72
2021/12/26 13:04:18;;;;;;;1.45;0.63;;;;;;;;;;4993159;28;20392;-72
2021/12/26 13:06:56;;;;;;;1.60;0.47;;;;;;;;;;4992759;28;20050;-74
2021/12/26 13:09:23;;;;;;;2.40;1.20;;;;;;;;;;4974943;28;20129;-74
2021/12/26 13:11:51;;;;;;;2.22;0.85;;;;;;;;;;4972938;28;20124;-74
2021/12/26 13:14:36;;;;;;;1.42;0.57;;;;;;;;;;4978335;28;20438;-73
2021/12/26 13:17:03;;;;;;;1.55;0.55;;;;;;;;;;4992565;28;20042;-73
2021/12/26 13:19:30;;;;;;;2.85;0.77;;;;;;;;;;4991148;28;20503;-72
2021/12/26 13:21:56;;;;;;;1.88;0.57;;;;;;;;;;4992816;28;20042;-73
2021/12/26 13:24:30;;;;;;;2.50;0.90;;;;;;;;;;4993861;28;20054;-73
2021/12/26 13:26:57;;;;;;;1.80;0.73;;;;;;;;;;4990386;28;20073;-73
2021/12/26 13:29:23;;;;;;;1.70;0.50;;;;;;;;;;4992111;28;20054;-73
2021/12/26 13:31:50;;;;;;;2.23;0.70;;;;;;;;;;4992244;28;20053;-73
2021/12/26 13:34:16;;;;;;;1.55;0.75;;;;;;;;;;5006941;28;20038;-74
2021/12/26 13:36:46;;;;;;;2.92;1.00;;;;;;;;;;4992078;28;20093;-74
2021/12/26 13:39:18;;;;;;;2.42;0.73;;;;;;;;;;5007284;28;20050;-73
2021/12/26 13:41:45;;;;;;;2.50;0.95;;;;;;;;;;4990926;28;20120;-73
2021/12/26 13:44:12;;;;;;;3.17;1.95;;;;;;;;;;4991691;28;20046;-73
2021/12/26 13:46:39;;;;;;;5.55;4.30;;;;;;;;;;4991601;28;20078;-74
2021/12/26 13:49:11;;;;;;;3.25;2.05;;;;;;;;;;4973433;28;20146;-73
2021/12/26 13:51:39;;;;;;;4.95;2.95;;;;;;;;;;4990294;28;20054;-72
2021/12/26 13:54:20;;;;;;;3.83;0.93;;;;;;;;;;4991577;28;20050;-73
2021/12/26 13:56:53;;;;;;;3.13;0.70;;;;;;;;;;4991789;28;20046;-74
2021/12/26 13:59:30;;;;;;;1.83;0.50;;;;;;;;;;4992064;28;20399;-73
2021/12/26 14:01:56;;;;;;;;;;;;;;;;;;4979969;28;20574;-73
2021/12/26 14:04:23;;;;;;;1.83;0.60;;;;;;;;;;4991360;28;19940;-72
2021/12/26 14:06:50;;;;;;;1.35;0.50;;;;;;;;;;4983986;28;20076;-72
2021/12/26 14:09:16;;;;;;;1.88;0.70;;;;;;;;;;4985907;28;20448;-73
2021/12/26 14:11:43;;;;;;;2.22;0.85;;;;;;;;;;4989006;28;20186;-73
2021/12/26 14:14:10;;;;;;;1.65;0.50;;;;;;;;;;4988996;28;20100;-72
2021/12/26 14:16:42;;;;;;;1.83;0.60;;;;;;;;;;4989117;28;20051;-71
2021/12/26 14:19:13;;;;;;;1.40;0.57;;;;;;;;;;4973631;28;20055;-71
2021/12/26 14:21:44;;;;;;;3.75;0.90;;;;;;;;;;4991602;28;20050;-72
2021/12/26 14:24:11;;;;;;;2.33;0.85;;;;;;;;;;4991722;28;20479;-72
2021/12/26 14:26:42;;;;;;;2.90;1.15;;;;;;;;;;4992265;28;20055;-72
2021/12/26 14:29:17;;;;;;;3.22;0.50;;;;;;;;;;4992111;28;20105;-72
2021/12/26 14:31:46;;;;;;;2.42;0.90;;;;;;;;;;4992093;28;20055;-72
2021/12/26 14:34:32;;;;;;;3.10;0.73;;;;;;;;;;4991803;28;20050;-72
2021/12/26 14:37:07;;;;;;;3.63;0.90;;;;;;;;;;4991537;28;20199;-72
2021/12/26 14:39:33;;;;;;;4.85;0.88;;;;;;;;;;4989535;28;20054;-73
2021/12/26 14:42:09;;;;;;;3.33;1.23;;;;;;;;;;4979338;28;20073;-73
2021/12/26 14:44:39;;;;;;;1.55;0.77;;;;;;;;;;4988626;28;20284;-72
2021/12/26 14:47:10;;;;;;;2.58;1.17;;;;;;;;;;4987882;28;20453;-72